createdAt,value
2018-12-20T00:02:01.036Z,84.87
2018-12-20T00:04:31.793Z,84.58
2018-12-20T00:07:02.205Z,84.08
2018-12-20T00:09:32.378Z,84.39
2018-12-20T00:12:02.512Z,84.16
2018-12-20T00:14:54.971Z,84.29
2018-12-20T00:17:30.387Z,84.37
2018-12-20T00:20:00.416Z,84.53
2018-12-20T00:22:30.598Z,84.51
2018-12-20T00:25:00.651Z,83.86
2018-12-20T00:27:30.854Z,84.30
2018-12-20T00:30:01.186Z,84.34
2018-12-20T00:32:31.232Z,84.80
2018-12-20T00:35:01.489Z,84.66
2018-12-20T00:37:31.872Z,84.86
2018-12-20T00:40:06.379Z,84.72
2018-12-20T00:42:34.264Z,84.58
2018-12-20T00:45:05.226Z,84.99
2018-12-20T00:47:35.515Z,84.38
2018-12-20T00:50:06.253Z,85.13
2018-12-20T00:52:36.338Z,85.36
2018-12-20T00:55:06.404Z,85.22
2018-12-20T00:57:36.450Z,85.11
2018-12-20T01:00:10.128Z,84.71
2018-12-20T01:02:40.552Z,84.74
2018-12-20T01:05:11.227Z,84.58
2018-12-20T01:07:41.517Z,84.66
2018-12-20T01:10:11.808Z,84.66
2018-12-20T01:12:42.091Z,84.37
2018-12-20T01:15:12.257Z,84.90
2018-12-20T01:17:42.354Z,84.70
2018-12-20T01:20:12.909Z,84.84
2018-12-20T01:22:43.317Z,84.13
2018-12-20T01:25:13.610Z,84.58
2018-12-20T01:27:43.959Z,84.50
2018-12-20T01:30:14.281Z,84.63
2018-12-20T01:32:45.580Z,84.63
2018-12-20T01:35:15.831Z,83.97
2018-12-20T01:37:46.397Z,83.94
2018-12-20T01:40:16.661Z,84.04
2018-12-20T01:42:47.082Z,84.79
2018-12-20T01:45:17.262Z,84.51
2018-12-20T01:47:47.564Z,84.08
2018-12-20T01:50:17.718Z,84.00
2018-12-20T01:52:48.706Z,83.88
2018-12-20T01:55:19.710Z,83.79
2018-12-20T01:57:50.113Z,84.37
2018-12-20T02:00:20.405Z,83.96
2018-12-20T02:02:50.650Z,84.47
2018-12-20T02:05:20.964Z,84.28
2018-12-20T02:07:51.446Z,83.93
2018-12-20T02:10:21.637Z,83.73
2018-12-20T02:12:51.755Z,83.71
2018-12-20T02:15:21.847Z,83.15
2018-12-20T02:17:52.090Z,84.06
2018-12-20T02:20:24.083Z,84.23
2018-12-20T02:22:54.388Z,83.96
2018-12-20T02:25:24.676Z,84.00
2018-12-20T02:27:55.217Z,83.83
2018-12-20T02:30:25.468Z,83.85
2018-12-20T02:32:55.699Z,83.78
2018-12-20T02:35:26.270Z,84.38
2018-12-20T02:37:56.708Z,83.39
2018-12-20T02:40:27.044Z,83.40
2018-12-20T02:42:57.687Z,82.88
2018-12-20T02:45:27.818Z,83.44
2018-12-20T02:47:58.753Z,83.44
2018-12-20T02:50:29.491Z,83.80
2018-12-20T02:52:59.756Z,84.17
2018-12-20T02:55:30.005Z,83.99
2018-12-20T02:58:00.684Z,84.25
2018-12-20T03:00:30.846Z,83.78
2018-12-20T03:03:00.861Z,84.07
2018-12-20T03:05:30.913Z,83.93
2018-12-20T03:08:01.167Z,84.20
2018-12-20T03:10:31.239Z,83.76
2018-12-20T03:13:01.643Z,84.26
2018-12-20T03:15:31.733Z,84.62
2018-12-20T03:18:01.944Z,84.72
2018-12-20T03:20:35.099Z,84.20
2018-12-20T03:23:07.004Z,85.00
2018-12-20T03:25:37.377Z,84.30
2018-12-20T03:28:08.041Z,84.42
2018-12-20T03:30:38.788Z,85.04
2018-12-20T03:33:10.627Z,84.89
2018-12-20T03:35:40.866Z,83.80
2018-12-20T03:38:11.085Z,84.41
2018-12-20T03:40:41.677Z,84.80
2018-12-20T03:43:12.270Z,84.59
2018-12-20T03:45:42.692Z,85.20
2018-12-20T03:48:12.857Z,84.66
2018-12-20T03:50:42.889Z,84.93
2018-12-20T03:53:12.999Z,85.38
2018-12-20T03:55:44.402Z,84.27
2018-12-20T03:58:14.532Z,84.49
2018-12-20T04:00:44.637Z,85.38
2018-12-20T04:03:15.860Z,85.19
2018-12-20T04:14:47.435Z,84.62
2018-12-20T04:17:17.633Z,84.65
2018-12-20T04:19:47.766Z,84.88
2018-12-20T04:22:17.933Z,84.72
2018-12-20T04:24:48.139Z,85.37
2018-12-20T04:27:18.304Z,84.53
2018-12-20T04:29:48.491Z,84.44
2018-12-20T04:32:22.536Z,84.43
2018-12-20T04:34:52.565Z,84.91
2018-12-20T04:37:22.713Z,84.99
2018-12-20T04:39:53.110Z,85.38
2018-12-20T04:42:23.320Z,85.64
2018-12-20T04:44:53.425Z,85.52
2018-12-20T04:47:23.805Z,85.18
2018-12-20T04:49:54.090Z,85.38
2018-12-20T04:52:24.238Z,85.20
2018-12-20T04:54:54.312Z,85.84
2018-12-20T04:57:24.794Z,85.22
2018-12-20T04:59:55.081Z,85.55
2018-12-20T05:02:26.263Z,85.49
2018-12-20T05:04:57.834Z,85.50
2018-12-20T05:07:28.822Z,84.98
2018-12-20T05:09:59.349Z,84.81
2018-12-20T05:12:29.692Z,85.01
2018-12-20T05:14:59.983Z,85.59
2018-12-20T05:17:30.358Z,85.93
2018-12-20T05:20:00.463Z,85.44
2018-12-20T05:22:30.710Z,85.89
2018-12-20T05:25:00.981Z,85.09
2018-12-20T05:27:31.328Z,85.33
2018-12-20T05:30:01.405Z,85.24
2018-12-20T05:32:31.538Z,85.75
2018-12-20T05:35:02.208Z,86.13
2018-12-20T05:37:32.665Z,87.06
2018-12-20T05:40:03.027Z,86.72
2018-12-20T05:42:33.394Z,86.31
2018-12-20T05:45:03.928Z,86.78
2018-12-20T05:47:34.192Z,86.26
2018-12-20T05:50:04.887Z,85.69
2018-12-20T05:52:35.040Z,86.20
2018-12-20T05:55:05.613Z,85.70
2018-12-20T05:57:35.749Z,86.03
2018-12-20T06:00:06.973Z,85.64
2018-12-20T06:02:37.016Z,85.58
2018-12-20T06:05:07.423Z,85.98
2018-12-20T06:07:37.785Z,85.91
2018-12-20T06:10:08.090Z,85.82
2018-12-20T06:12:38.297Z,85.49
2018-12-20T06:15:08.672Z,85.64
2018-12-20T06:17:38.718Z,85.05
2018-12-20T06:20:09.757Z,84.71
2018-12-20T06:22:40.320Z,84.91
2018-12-20T06:25:10.992Z,86.37
2018-12-20T06:27:45.407Z,86.75
2018-12-20T06:30:33.834Z,86.17
2018-12-20T06:33:19.973Z,86.41
2018-12-20T06:36:06.653Z,85.70
2018-12-20T06:38:51.936Z,86.03
2018-12-20T06:41:37.955Z,85.26
2018-12-20T06:44:30.338Z,85.48
2018-12-20T06:47:18.554Z,85.69
2018-12-20T06:50:03.704Z,85.62
2018-12-20T06:52:50.051Z,85.03
2018-12-20T06:55:35.645Z,85.52
2018-12-20T06:58:27.070Z,85.59
2018-12-20T07:01:12.577Z,85.90
2018-12-20T07:04:00.152Z,85.94
2018-12-20T07:06:48.997Z,86.38
2018-12-20T07:09:38.103Z,85.03
2018-12-20T07:12:25.823Z,84.51
2018-12-20T07:18:09.943Z,85.27
2018-12-20T07:20:52.937Z,86.02
2018-12-20T07:23:37.703Z,85.27
2018-12-20T07:26:24.227Z,85.62
2018-12-20T07:29:08.831Z,85.78
2018-12-20T07:31:48.066Z,85.56
2018-12-20T07:34:22.449Z,85.69
2018-12-20T07:36:53.361Z,85.25
2018-12-20T07:39:23.639Z,85.44
2018-12-20T07:41:53.745Z,85.08
2018-12-20T07:44:23.773Z,86.09
2018-12-20T07:46:53.861Z,86.46
2018-12-20T07:49:24.041Z,85.84
2018-12-20T07:51:54.100Z,86.27
2018-12-20T07:54:24.706Z,86.27
2018-12-20T07:56:55.184Z,86.42
2018-12-20T07:59:25.303Z,87.22
2018-12-20T08:01:55.857Z,86.63
2018-12-20T08:04:26.020Z,86.86
2018-12-20T08:06:56.076Z,86.65
2018-12-20T08:09:26.072Z,86.37
2018-12-20T08:11:56.143Z,85.94
2018-12-20T08:14:26.366Z,85.86
2018-12-20T08:16:56.380Z,86.19
2018-12-20T08:19:26.413Z,86.46
2018-12-20T08:21:56.805Z,86.71
2018-12-20T08:24:26.847Z,85.24
2018-12-20T08:26:57.000Z,85.47
2018-12-20T08:29:27.211Z,86.13
2018-12-20T08:31:57.237Z,85.64
2018-12-20T08:34:28.225Z,86.37
2018-12-20T08:36:58.425Z,86.84
2018-12-20T08:39:28.483Z,86.01
2018-12-20T08:41:58.486Z,86.34
2018-12-20T08:44:28.671Z,86.60
2018-12-20T08:46:59.179Z,86.54
2018-12-20T08:49:30.169Z,86.31
2018-12-20T08:52:00.194Z,85.50
2018-12-20T08:54:30.213Z,85.86
2018-12-20T08:57:00.403Z,86.05
2018-12-20T08:59:30.552Z,86.55
2018-12-20T09:02:01.508Z,86.46
2018-12-20T09:04:33.089Z,85.82
2018-12-20T09:07:03.449Z,86.54
2018-12-20T09:09:33.792Z,86.71
2018-12-20T09:12:03.802Z,87.20
2018-12-20T09:14:33.926Z,87.50
2018-12-20T09:17:03.960Z,87.25
2018-12-20T09:19:33.994Z,86.62
2018-12-20T09:22:04.039Z,86.89
2018-12-20T09:24:34.610Z,86.83
2018-12-20T09:27:04.815Z,86.27
2018-12-20T09:29:34.859Z,86.32
2018-12-20T09:32:04.912Z,86.34
2018-12-20T09:34:35.058Z,86.76
2018-12-20T09:37:05.360Z,87.14
2018-12-20T09:39:35.390Z,86.98
2018-12-20T09:42:05.499Z,87.32
2018-12-20T09:44:35.632Z,87.24
2018-12-20T09:47:11.779Z,86.91
2018-12-20T09:49:42.358Z,87.49
2018-12-20T09:52:12.469Z,87.20
2018-12-20T09:54:42.638Z,87.25
2018-12-20T09:57:12.677Z,87.86
2018-12-20T09:59:42.805Z,87.76
2018-12-20T10:02:12.813Z,88.14
2018-12-20T10:04:42.941Z,87.54
2018-12-20T10:07:12.956Z,87.75
2018-12-20T10:09:43.137Z,87.94
2018-12-20T10:12:13.199Z,88.08
2018-12-20T10:14:43.494Z,87.88
2018-12-20T10:17:19.811Z,88.87
2018-12-20T10:19:45.971Z,88.70
2018-12-20T10:22:16.025Z,88.41
2018-12-20T10:24:46.085Z,88.00
2018-12-20T10:27:16.140Z,88.20
2018-12-20T10:29:46.709Z,88.02
2018-12-20T10:32:16.817Z,88.04
2018-12-20T10:34:46.964Z,88.24
2018-12-20T10:37:17.078Z,88.78
2018-12-20T10:39:47.184Z,88.15
2018-12-20T10:42:17.285Z,88.46
2018-12-20T10:44:47.741Z,88.29
2018-12-20T10:47:29.257Z,88.65
2018-12-20T10:49:58.084Z,88.64
2018-12-20T10:52:28.121Z,89.26
2018-12-20T10:54:58.253Z,89.34
2018-12-20T10:57:28.272Z,88.81
2018-12-20T10:59:58.338Z,89.38
2018-12-20T11:02:34.762Z,89.24
2018-12-20T11:05:11.189Z,89.41
2018-12-20T11:07:46.562Z,89.32
2018-12-20T11:10:25.176Z,89.20
2018-12-20T11:15:56.991Z,89.49
2018-12-20T11:18:27.040Z,89.54
2018-12-20T11:20:57.203Z,89.47
2018-12-20T11:23:27.525Z,89.18
2018-12-20T11:25:57.529Z,90.83
2018-12-20T11:28:28.249Z,90.44
2018-12-20T11:30:58.315Z,91.11
2018-12-20T11:33:28.393Z,91.90
2018-12-20T11:35:58.534Z,92.56
2018-12-20T11:38:28.662Z,92.63
2018-12-20T11:40:58.673Z,92.97
2018-12-20T11:43:28.673Z,93.07
2018-12-20T11:45:58.737Z,91.62
2018-12-20T11:48:28.810Z,91.98
2018-12-20T11:50:58.826Z,92.17
2018-12-20T11:53:28.941Z,91.91
2018-12-20T11:55:58.983Z,90.54
2018-12-20T11:58:29.225Z,90.40
2018-12-20T12:00:59.363Z,90.21
2018-12-20T12:03:29.489Z,91.06
2018-12-20T12:05:59.614Z,89.21
2018-12-20T12:08:29.621Z,90.45
2018-12-20T12:10:59.708Z,90.05
2018-12-20T12:13:29.753Z,90.01
2018-12-20T12:15:59.813Z,89.34
2018-12-20T12:18:29.951Z,88.79
2018-12-20T12:21:00.151Z,87.08
2018-12-20T12:23:30.201Z,86.69
2018-12-20T12:26:00.293Z,85.31
2018-12-20T12:28:30.880Z,85.64
2018-12-20T12:31:01.031Z,84.47
2018-12-20T12:33:31.134Z,84.00
2018-12-20T12:36:01.188Z,83.42
2018-12-20T12:38:31.589Z,84.13
2018-12-20T12:41:01.675Z,84.80
2018-12-20T12:43:31.738Z,84.83
2018-12-20T12:46:01.785Z,84.75
2018-12-20T12:48:31.897Z,85.16
2018-12-20T12:51:02.088Z,84.49
2018-12-20T12:53:32.164Z,85.16
2018-12-20T12:56:02.215Z,85.25
2018-12-20T12:58:32.661Z,85.62
2018-12-20T13:01:02.694Z,85.28
2018-12-20T13:03:32.982Z,86.33
2018-12-20T13:06:03.250Z,85.49
2018-12-20T13:08:33.360Z,85.74
2018-12-20T13:11:03.669Z,85.86
2018-12-20T13:13:34.089Z,86.14
2018-12-20T13:16:04.221Z,85.14
2018-12-20T13:18:34.270Z,85.94
2018-12-20T13:21:04.540Z,86.02
2018-12-20T13:23:35.010Z,86.82
2018-12-20T13:26:05.246Z,87.09
2018-12-20T13:28:35.704Z,86.61
2018-12-20T13:31:06.006Z,86.38
2018-12-20T13:33:36.177Z,86.57
2018-12-20T13:36:06.304Z,87.46
2018-12-20T13:38:36.378Z,86.78
2018-12-20T13:41:06.460Z,86.95
2018-12-20T13:43:36.582Z,86.48
2018-12-20T13:46:06.653Z,86.34
2018-12-20T13:48:37.265Z,87.07
2018-12-20T13:51:07.359Z,86.64
2018-12-20T13:53:37.429Z,87.45
2018-12-20T13:59:08.424Z,87.59
2018-12-20T14:01:42.709Z,87.96
2018-12-20T14:04:25.064Z,87.80
2018-12-20T14:06:55.203Z,88.45
2018-12-20T14:09:25.714Z,87.71
2018-12-20T14:11:55.837Z,88.30
2018-12-20T14:14:25.888Z,88.56
2018-12-20T14:16:55.922Z,88.31
2018-12-20T14:19:26.021Z,88.39
2018-12-20T14:21:56.207Z,88.23
2018-12-20T14:24:26.215Z,88.50
2018-12-20T14:26:56.267Z,88.99
2018-12-20T14:29:26.377Z,88.04
2018-12-20T14:31:56.721Z,88.20
2018-12-20T14:34:26.737Z,88.04
2018-12-20T14:36:56.903Z,88.78
2018-12-20T14:39:26.961Z,88.35
2018-12-20T14:41:57.194Z,89.54
2018-12-20T14:44:27.666Z,89.45
2018-12-20T14:46:57.727Z,89.22
2018-12-20T14:49:27.966Z,89.39
2018-12-20T14:51:58.089Z,89.94
2018-12-20T14:54:28.141Z,88.97
2018-12-20T14:56:58.238Z,89.67
2018-12-20T14:59:28.269Z,89.27
2018-12-20T15:01:59.308Z,89.47
2018-12-20T15:04:32.215Z,89.58
2018-12-20T15:07:02.262Z,89.50
2018-12-20T15:09:32.369Z,90.11
2018-12-20T15:12:03.475Z,89.84
2018-12-20T15:14:33.787Z,89.74
2018-12-20T15:17:03.828Z,90.32
2018-12-20T15:19:33.909Z,89.59
2018-12-20T15:22:04.012Z,89.60
2018-12-20T15:24:34.164Z,90.19
2018-12-20T15:27:04.283Z,90.15
2018-12-20T15:29:35.559Z,90.74
2018-12-20T15:32:05.584Z,90.86
2018-12-20T15:34:35.984Z,90.83
2018-12-20T15:37:06.436Z,91.17
2018-12-20T15:39:36.823Z,91.22
2018-12-20T15:42:06.912Z,90.76
2018-12-20T15:44:37.021Z,90.61
2018-12-20T15:47:07.074Z,90.73
2018-12-20T15:49:41.913Z,90.67
2018-12-20T15:52:09.544Z,90.68
2018-12-20T15:54:40.870Z,91.28
2018-12-20T15:57:11.125Z,91.24
2018-12-20T16:02:42.783Z,90.55
2018-12-20T16:05:12.931Z,90.93
2018-12-20T16:07:43.085Z,90.65
2018-12-20T16:10:13.274Z,90.44
2018-12-20T16:12:43.665Z,91.08
2018-12-20T16:15:13.757Z,90.53
2018-12-20T16:17:43.790Z,90.51
2018-12-20T16:20:13.865Z,90.59
2018-12-20T16:22:44.088Z,91.28
2018-12-20T16:25:14.254Z,91.07
2018-12-20T16:27:44.349Z,91.12
2018-12-20T16:30:14.405Z,90.64
2018-12-20T16:32:44.454Z,90.54
2018-12-20T16:35:14.518Z,91.12
2018-12-20T16:40:44.541Z,91.20
2018-12-20T16:43:14.658Z,91.38
2018-12-20T16:45:44.783Z,91.12
2018-12-20T16:48:17.277Z,90.90
2018-12-20T16:50:47.537Z,91.17
2018-12-20T16:53:17.742Z,91.46
2018-12-20T16:55:50.241Z,91.63
2018-12-20T16:58:20.125Z,91.58
2018-12-20T17:00:50.222Z,91.41
2018-12-20T17:03:20.979Z,91.36
2018-12-20T17:05:53.492Z,91.95
2018-12-20T17:08:23.574Z,91.75
2018-12-20T17:10:53.660Z,91.80
2018-12-20T17:13:23.809Z,91.81
2018-12-20T17:15:53.933Z,91.61
2018-12-20T17:21:24.592Z,90.34
2018-12-20T17:23:54.674Z,90.93
2018-12-20T17:26:24.978Z,91.05
2018-12-20T17:28:55.103Z,91.06
2018-12-20T17:31:25.184Z,90.99
2018-12-20T17:33:55.245Z,91.16
2018-12-20T17:36:25.276Z,89.96
2018-12-20T17:38:56.457Z,90.73
2018-12-20T17:41:26.548Z,91.26
2018-12-20T17:43:56.832Z,90.88
2018-12-20T17:46:27.009Z,91.05
2018-12-20T17:48:57.098Z,91.37
2018-12-20T17:51:27.157Z,91.05
2018-12-20T17:53:57.262Z,91.07
2018-12-20T17:56:27.335Z,91.26
2018-12-20T17:58:57.369Z,91.08
2018-12-20T18:01:27.559Z,90.94
2018-12-20T18:03:57.645Z,91.31
2018-12-20T18:06:27.753Z,91.03
2018-12-20T18:08:57.840Z,91.45
2018-12-20T18:11:27.918Z,91.02
2018-12-20T18:13:57.985Z,90.86
2018-12-20T18:16:28.241Z,90.44
2018-12-20T18:18:58.348Z,91.21
2018-12-20T18:21:28.407Z,91.30
2018-12-20T18:23:58.504Z,91.15
2018-12-20T18:26:29.372Z,91.56
2018-12-20T18:28:59.433Z,91.56
2018-12-20T18:31:29.469Z,91.16
2018-12-20T18:33:59.590Z,91.39
2018-12-20T18:36:29.708Z,91.62
2018-12-20T18:38:59.728Z,91.11
2018-12-20T18:41:29.789Z,90.98
2018-12-20T18:44:00.757Z,91.29
2018-12-20T18:46:31.257Z,91.33
2018-12-20T18:49:01.329Z,91.58
2018-12-20T18:51:31.495Z,91.68
2018-12-20T18:54:01.569Z,91.27
2018-12-20T18:56:31.638Z,90.99
2018-12-20T18:59:01.682Z,91.26
2018-12-20T19:01:32.094Z,91.24
2018-12-20T19:04:02.364Z,91.28
2018-12-20T19:06:32.703Z,91.30
2018-12-20T19:09:02.916Z,91.17
2018-12-20T19:11:32.976Z,91.37
2018-12-20T19:14:03.004Z,91.15
2018-12-20T19:16:33.051Z,91.56
2018-12-20T19:19:03.242Z,91.68
2018-12-20T19:21:33.288Z,91.49
2018-12-20T19:24:04.496Z,91.49
2018-12-20T19:26:34.760Z,91.35
2018-12-20T19:29:04.925Z,91.58
2018-12-20T19:31:35.029Z,90.96
2018-12-20T19:34:05.042Z,90.90
2018-12-20T19:36:35.469Z,90.89
2018-12-20T19:39:12.211Z,91.05
2018-12-20T19:41:42.428Z,91.36
2018-12-20T19:44:12.606Z,91.28
2018-12-20T19:46:48.805Z,91.33
2018-12-20T19:49:18.970Z,90.78
2018-12-20T19:51:49.032Z,91.02
2018-12-20T19:54:19.213Z,91.22
2018-12-20T19:56:49.408Z,91.92
2018-12-20T19:59:19.686Z,91.92
2018-12-20T20:01:50.164Z,91.55
2018-12-20T20:04:20.324Z,91.38
2018-12-20T20:06:50.449Z,91.16
2018-12-20T20:09:20.664Z,90.96
2018-12-20T20:11:50.668Z,90.98
2018-12-20T20:14:20.916Z,90.94
2018-12-20T20:16:51.202Z,91.25
2018-12-20T20:19:21.738Z,90.93
2018-12-20T20:21:51.927Z,90.59
2018-12-20T20:24:21.986Z,90.51
2018-12-20T20:26:51.997Z,91.46
2018-12-20T20:29:22.024Z,91.37
2018-12-20T20:31:52.170Z,91.59
2018-12-20T20:34:23.099Z,92.02
2018-12-20T20:36:53.499Z,91.60
2018-12-20T20:39:23.926Z,91.57
2018-12-20T20:41:54.301Z,91.69
2018-12-20T20:44:24.346Z,91.68
2018-12-20T20:46:55.572Z,90.24
2018-12-20T20:49:25.591Z,90.99
2018-12-20T20:51:55.998Z,90.68
2018-12-20T20:54:26.019Z,89.91
2018-12-20T20:56:56.050Z,90.62
2018-12-20T20:59:50.796Z,90.77
2018-12-20T21:02:19.756Z,90.84
2018-12-20T21:04:51.011Z,91.60
2018-12-20T21:07:21.257Z,91.48
2018-12-20T21:09:51.520Z,91.52
2018-12-20T21:12:22.979Z,91.86
2018-12-20T21:14:53.722Z,90.40
2018-12-20T21:17:23.766Z,90.87
2018-12-20T21:19:53.994Z,91.41
2018-12-20T21:22:24.006Z,91.88
2018-12-20T21:24:54.050Z,91.41
2018-12-20T21:27:24.406Z,91.92
2018-12-20T21:29:54.471Z,91.60
2018-12-20T21:32:24.805Z,91.62
2018-12-20T21:34:55.065Z,91.63
2018-12-20T21:37:25.080Z,91.79
2018-12-20T21:39:55.538Z,91.14
2018-12-20T21:42:25.721Z,91.41
2018-12-20T21:44:55.857Z,91.17
2018-12-20T21:47:26.213Z,91.28
2018-12-20T21:49:56.675Z,91.44
2018-12-20T21:52:26.718Z,91.31
2018-12-20T21:54:56.879Z,91.43
2018-12-20T21:57:26.928Z,90.49
2018-12-20T22:00:01.218Z,90.56
2018-12-20T22:02:29.444Z,90.87
2018-12-20T22:11:00.594Z,91.54
2018-12-20T22:13:30.912Z,91.72
2018-12-20T22:16:01.089Z,92.06
2018-12-20T22:18:31.102Z,91.62
2018-12-20T22:21:01.341Z,91.55
2018-12-20T22:23:31.412Z,91.43
2018-12-20T22:26:01.534Z,91.60
2018-12-20T22:28:31.564Z,91.70
2018-12-20T22:31:01.624Z,91.50
2018-12-20T22:33:31.732Z,91.95
2018-12-20T22:36:01.911Z,90.18
2018-12-20T22:38:31.952Z,90.56
2018-12-20T22:47:12.461Z,91.93
2018-12-20T22:49:42.494Z,90.68
2018-12-20T22:52:12.570Z,91.06
2018-12-20T22:54:42.585Z,91.31
2018-12-20T22:57:12.703Z,91.53
2018-12-20T22:59:42.861Z,92.21
2018-12-20T23:02:17.997Z,92.56
2018-12-20T23:04:46.981Z,92.08
2018-12-20T23:07:17.020Z,92.85
2018-12-20T23:09:47.187Z,92.37
2018-12-20T23:12:18.113Z,92.62
2018-12-20T23:14:48.380Z,91.97
2018-12-20T23:17:18.560Z,92.88
2018-12-20T23:19:48.955Z,93.06
2018-12-20T23:22:19.004Z,92.97
2018-12-20T23:24:49.369Z,93.27
2018-12-20T23:27:19.589Z,93.40
2018-12-20T23:29:49.609Z,92.91
2018-12-20T23:32:20.010Z,93.13
2018-12-20T23:34:50.045Z,93.44
2018-12-20T23:37:20.275Z,93.21
2018-12-20T23:39:50.473Z,93.88
2018-12-20T23:42:20.699Z,93.73
2018-12-20T23:44:50.711Z,93.49
2018-12-20T23:47:20.737Z,93.64
2018-12-20T23:49:50.841Z,93.66
2018-12-20T23:52:20.851Z,93.03
2018-12-20T23:54:50.883Z,93.29
2018-12-20T23:57:20.889Z,92.92
2018-12-20T23:59:51.039Z,93.61
